createdAt,value
2022-10-19T00:01:47.206Z,-28
2022-10-19T00:05:49.709Z,-28.3
2022-10-19T00:07:51.234Z,-28.2
2022-10-19T00:09:52.979Z,-27.8
2022-10-19T00:15:56.204Z,-28
2022-10-19T00:17:57.226Z,-28
2022-10-19T00:19:59.021Z,-28.2
2022-10-19T00:22:00.153Z,-28
2022-10-19T00:24:01.337Z,-28.2
2022-10-19T00:26:02.521Z,-27.9
2022-10-19T00:28:04.073Z,-28.2
2022-10-19T00:30:05.947Z,-28
2022-10-19T00:32:07.117Z,-28
2022-10-19T00:34:08.872Z,-28.2
2022-10-19T00:36:10.759Z,-28.2
2022-10-19T00:38:11.705Z,-28.4
2022-10-19T00:40:12.836Z,-28.2
2022-10-19T00:42:13.981Z,-28.3
2022-10-19T00:46:16.416Z,-28.1
2022-10-19T00:48:17.896Z,-28.1
2022-10-19T00:52:21.365Z,-28
2022-10-19T00:54:22.934Z,-28.2
2022-10-19T00:56:24.376Z,-28
2022-10-19T00:58:25.491Z,-28.2
2022-10-19T01:00:26.890Z,-28.2
2022-10-19T01:02:28.320Z,-28.3
2022-10-19T01:04:29.389Z,-27.9
2022-10-19T01:06:30.330Z,-28.3
2022-10-19T01:08:31.456Z,-28.1
2022-10-19T01:14:35.249Z,-28
2022-10-19T01:16:36.733Z,-28
2022-10-19T01:18:38.630Z,-28
2022-10-19T01:20:39.522Z,-27.8
2022-10-19T01:22:40.679Z,-28
2022-10-19T01:24:41.989Z,-28
2022-10-19T01:28:44.258Z,-27.8
2022-10-19T01:30:45.592Z,-28.3
2022-10-19T01:32:46.811Z,-28.2
2022-10-19T01:34:47.714Z,-27.9
2022-10-19T01:40:52.207Z,-28
2022-10-19T01:44:54.880Z,-28.2
2022-10-19T01:46:56.554Z,-27.7
2022-10-19T01:48:57.484Z,-27.9
2022-10-19T01:50:58.733Z,-28
2022-10-19T01:55:01.544Z,-28.2
2022-10-19T01:57:03.008Z,-28.1
2022-10-19T01:59:04.752Z,-28
2022-10-19T02:01:06.087Z,-28
2022-10-19T02:03:07.767Z,-28.1
2022-10-19T02:05:09.035Z,-28
2022-10-19T02:07:10.116Z,-27.9
2022-10-19T02:09:11.348Z,-28
2022-10-19T02:11:12.674Z,-28.2
2022-10-19T02:13:14.214Z,-28.3
2022-10-19T02:15:15.809Z,-27.9
2022-10-19T02:17:17.046Z,-27.9
2022-10-19T02:19:18.460Z,-28.1
2022-10-19T02:21:19.623Z,-28.2
2022-10-19T02:23:21.277Z,-28.3
2022-10-19T02:27:23.831Z,-28
2022-10-19T02:29:25.350Z,-28.3
2022-10-19T02:31:27.107Z,-27.9
2022-10-19T02:33:28.119Z,-28.2
2022-10-19T02:35:29.802Z,-28.2
2022-10-19T02:37:31.081Z,-28.2
2022-10-19T02:39:32.752Z,-27.9
2022-10-19T02:41:34.621Z,-27.9
2022-10-19T02:43:36.403Z,-28.2
2022-10-19T02:45:37.613Z,-28.3
2022-10-19T02:47:39.498Z,-27.6
2022-10-19T02:49:40.943Z,-28
2022-10-19T02:51:42.308Z,-27.8
2022-10-19T02:53:43.358Z,-27.9
2022-10-19T02:55:44.813Z,-27.5
2022-10-19T02:59:46.830Z,-28.3
2022-10-19T03:01:47.850Z,-27.9
2022-10-19T03:03:49.205Z,-28
2022-10-19T03:05:50.365Z,-28.2
2022-10-19T03:11:54.335Z,-28.3
2022-10-19T03:13:55.470Z,-28.2
2022-10-19T03:15:57.048Z,-28
2022-10-19T03:17:58.695Z,-28.3
2022-10-19T03:19:59.756Z,-28.3
2022-10-19T03:22:01.065Z,-28.1
2022-10-19T03:26:04.917Z,-28
2022-10-19T03:28:05.302Z,-28.1
2022-10-19T03:30:06.495Z,-27.8
2022-10-19T03:32:07.739Z,-27.9
2022-10-19T03:34:09.159Z,-28.1
2022-10-19T03:36:10.434Z,-27.9
2022-10-19T03:38:12.053Z,-28.2
2022-10-19T03:40:13.660Z,-27.9
2022-10-19T03:42:15.047Z,-28.3
2022-10-19T03:44:16.620Z,-28.2
2022-10-19T03:48:19.244Z,-27.7
2022-10-19T03:50:20.559Z,-28.4
2022-10-19T03:52:21.692Z,-28
2022-10-19T03:54:23.720Z,-28
2022-10-19T03:56:24.203Z,-28.2
2022-10-19T03:58:25.957Z,-28
2022-10-19T04:00:27.351Z,-28.2
2022-10-19T04:02:28.999Z,-28
2022-10-19T04:04:30.512Z,-28
2022-10-19T04:10:35.031Z,-27.9
2022-10-19T04:12:35.945Z,-27.9
2022-10-19T04:14:45.725Z,-28
2022-10-19T04:16:38.921Z,-27.9
2022-10-19T04:18:40.332Z,-28
2022-10-19T04:20:41.325Z,-28
2022-10-19T04:25:28.668Z,-28.2
2022-10-19T04:31:32.720Z,-28.3
2022-10-19T04:33:33.860Z,-27.9
2022-10-19T04:35:35.494Z,-28
2022-10-19T04:37:37.071Z,-28.4
2022-10-19T04:39:38.802Z,-28
2022-10-19T04:41:39.816Z,-28.2
2022-10-19T04:43:41.284Z,-27.9
2022-10-19T04:45:42.628Z,-28.1
2022-10-19T04:47:43.958Z,-27.9
2022-10-19T04:49:45.242Z,-28
2022-10-19T04:51:46.655Z,-27.9
2022-10-19T04:53:48.105Z,-27.9
2022-10-19T04:55:48.979Z,-28
2022-10-19T04:57:50.525Z,-28.2
2022-10-19T04:59:51.823Z,-28
2022-10-19T05:01:53.084Z,-28.2
2022-10-19T05:03:54.310Z,-28
2022-10-19T05:05:55.641Z,-28.2
2022-10-19T05:07:56.582Z,-27.9
2022-10-19T05:09:58.055Z,-28.3
2022-10-19T05:11:59.301Z,-28.2
2022-10-19T05:14:00.554Z,-28.2
2022-10-19T05:16:02.163Z,-28.1
2022-10-19T05:18:03.312Z,-28.3
2022-10-19T05:20:05.092Z,-28
2022-10-19T05:22:06.548Z,-27.9
2022-10-19T05:24:07.837Z,-28
2022-10-19T05:26:09.429Z,-28.1
2022-10-19T05:28:10.417Z,-28
2022-10-19T05:30:12.150Z,-28
2022-10-19T05:32:13.295Z,-28
2022-10-19T05:34:14.696Z,-28.3
2022-10-19T05:36:15.763Z,-27.8
2022-10-19T05:38:17.625Z,-28
2022-10-19T05:42:20.499Z,-28.2
2022-10-19T05:44:22.399Z,-28
2022-10-19T05:46:24.092Z,-27.8
2022-10-19T05:48:25.126Z,-28.1
2022-10-19T05:50:26.314Z,-28.3
2022-10-19T05:52:28.188Z,-28.2
2022-10-19T05:54:30.033Z,-28
2022-10-19T05:56:31.778Z,-27.8
2022-10-19T05:58:32.855Z,-28
2022-10-19T06:00:34.504Z,-27.9
2022-10-19T06:02:35.984Z,-28.1
2022-10-19T06:06:38.390Z,-28
2022-10-19T06:10:40.310Z,-28.2
2022-10-19T06:12:42.134Z,-28.3
2022-10-19T06:14:43.174Z,-28.1
2022-10-19T06:16:44.534Z,-28.3
2022-10-19T06:18:45.671Z,-28
2022-10-19T06:20:46.977Z,-28.2
2022-10-19T06:22:48.424Z,-28
2022-10-19T06:26:51.171Z,-28
2022-10-19T06:28:52.136Z,-28.2
2022-10-19T06:30:53.656Z,-28.3
2022-10-19T06:32:55.465Z,-28.3
2022-10-19T06:36:58.054Z,-27.9
2022-10-19T06:38:59.034Z,-28
2022-10-19T06:41:00.107Z,-28.1
2022-10-19T06:43:01.772Z,-28
2022-10-19T06:45:03.346Z,-27.8
2022-10-19T06:47:04.330Z,-27.7
2022-10-19T06:49:05.872Z,-28.1
2022-10-19T06:51:07.312Z,-28
2022-10-19T06:53:08.263Z,-27.9
2022-10-19T06:55:10.164Z,-28
2022-10-19T06:59:13.506Z,-28
2022-10-19T07:01:14.174Z,-27.9
2022-10-19T07:03:15.084Z,-28.3
2022-10-19T07:05:16.864Z,-27.9
2022-10-19T07:11:21.155Z,-27.9
2022-10-19T07:13:22.562Z,-28.2
2022-10-19T07:15:24.271Z,-28.2
2022-10-19T07:17:26.063Z,-28
2022-10-19T07:19:27.242Z,-28
2022-10-19T07:21:29.017Z,-28.2
2022-10-19T07:23:30.083Z,-28
2022-10-19T07:25:31.418Z,-28.2
2022-10-19T07:27:36.736Z,-28.1
2022-10-19T07:29:33.749Z,-28
2022-10-19T07:31:35.013Z,-26.3
2022-10-19T07:33:36.653Z,-25.5
2022-10-19T07:35:38.406Z,-19.1
2022-10-19T07:37:40.035Z,-27.8
2022-10-19T07:39:40.969Z,-27
2022-10-19T07:41:42.372Z,-25.6
2022-10-19T07:43:43.661Z,-16.7
2022-10-19T07:47:46.111Z,-9.7
2022-10-19T07:49:47.105Z,-8
2022-10-19T07:51:48.624Z,-4.6
2022-10-19T07:53:50.386Z,-0.1
2022-10-19T07:57:53.496Z,-6
2022-10-19T07:59:55.161Z,-11.7
2022-10-19T08:01:56.729Z,-15.9
2022-10-19T08:04:43.126Z,-17.79
2022-10-19T08:10:02.750Z,-15.8
2022-10-19T08:12:03.959Z,-25.9
2022-10-19T08:14:05.806Z,-24.9
2022-10-19T08:16:07.584Z,-17.1
2022-10-19T08:18:09.260Z,-16.2
2022-10-19T08:20:10.549Z,-9
2022-10-19T08:22:11.689Z,-6.7
2022-10-19T08:24:13.361Z,-16.9
2022-10-19T08:26:14.434Z,-6.9
2022-10-19T08:30:17.177Z,-9.1
2022-10-19T08:32:18.069Z,-6
2022-10-19T08:34:19.020Z,-5.9
2022-10-19T08:36:20.364Z,-8.6
2022-10-19T08:40:23.706Z,-8.8
2022-10-19T08:42:25.215Z,-7.2
2022-10-19T08:44:26.817Z,-14.5
2022-10-19T08:52:34.364Z,-9.1
2022-10-19T08:54:33.620Z,-6.2
2022-10-19T08:56:50.305Z,-4.8
2022-10-19T08:58:36.180Z,-9.2
2022-10-19T09:00:37.979Z,-9.5
2022-10-19T09:02:38.826Z,-4.4
2022-10-19T09:04:39.945Z,-6.8
2022-10-19T09:06:41.707Z,-10.3
2022-10-19T09:08:42.930Z,-10
2022-10-19T09:10:44.765Z,-7.8
2022-10-19T09:12:45.695Z,-5.3
2022-10-19T09:18:50.050Z,-6.4
2022-10-19T09:20:51.146Z,-9.39
2022-10-19T09:22:52.901Z,-9.89
2022-10-19T09:24:54.654Z,-8.89
2022-10-19T09:26:56.113Z,-2.4
2022-10-19T09:28:57.424Z,-0.9
2022-10-19T09:30:58.504Z,-3.4
2022-10-19T09:33:00.094Z,-5.4
2022-10-19T09:35:01.195Z,-5.7
2022-10-19T09:37:03.101Z,-4.9
2022-10-19T09:39:04.470Z,-4.3
2022-10-19T09:41:05.544Z,-6
2022-10-19T09:43:06.553Z,-5.8
2022-10-19T09:45:08.046Z,-1
2022-10-19T09:47:11.500Z,2.7
2022-10-19T09:49:11.423Z,2.8
2022-10-19T09:51:12.400Z,2.7
2022-10-19T09:53:14.112Z,2.2
2022-10-19T09:55:15.322Z,4
2022-10-19T09:57:16.369Z,3.3
2022-10-19T09:59:17.813Z,5.5
2022-10-19T10:01:19.621Z,3.5
2022-10-19T10:05:22.099Z,2.4
2022-10-19T10:07:23.519Z,2.8
2022-10-19T10:09:24.538Z,-3.2
2022-10-19T10:11:26.261Z,-4.1
2022-10-19T10:13:28.051Z,-0.3
2022-10-19T10:17:30.728Z,0.6
2022-10-19T10:19:32.161Z,6.7
2022-10-19T10:21:33.269Z,5.2
2022-10-19T10:23:34.783Z,-0.1
2022-10-19T10:25:36.038Z,1.1
2022-10-19T10:27:37.289Z,1.4
2022-10-19T10:33:44.850Z,2.2
2022-10-19T10:35:41.744Z,4.19
2022-10-19T10:37:43.135Z,-7
2022-10-19T10:39:44.393Z,-1
2022-10-19T10:41:45.994Z,0.7
2022-10-19T10:43:47.868Z,1.9
2022-10-19T10:45:49.413Z,0.2
2022-10-19T10:47:51.205Z,-2.3
2022-10-19T10:49:52.907Z,-2.3
2022-10-19T10:53:55.112Z,-4.9
2022-10-19T10:55:56.679Z,2.09
2022-10-19T10:57:57.967Z,2.7
2022-10-19T10:59:59.322Z,0.9
2022-10-19T11:02:00.322Z,0.4
2022-10-19T11:04:01.680Z,0.4
2022-10-19T11:06:03.090Z,6.3
2022-10-19T11:06:46.813Z,6.3
2022-10-19T11:10:50.112Z,9.1
2022-10-19T11:12:51.357Z,2.5
2022-10-19T11:14:52.297Z,6.4
2022-10-19T11:16:53.356Z,7.6
2022-10-19T11:18:54.362Z,2.09
2022-10-19T11:20:56.104Z,5.5
2022-10-19T11:22:57.403Z,9.2
2022-10-19T11:24:58.906Z,4.8
2022-10-19T11:27:00.391Z,3.4
2022-10-19T11:29:01.528Z,7.2
2022-10-19T11:31:03.029Z,8.1
2022-10-19T11:33:04.893Z,14
2022-10-19T11:35:06.226Z,27.4
2022-10-19T11:37:07.401Z,11.3
2022-10-19T11:41:18.785Z,-0.1
2022-10-19T11:43:11.910Z,-0.3
2022-10-19T11:45:12.780Z,-5.2
2022-10-19T11:47:13.908Z,-2.8
2022-10-19T11:53:18.559Z,-5.1
2022-10-19T11:55:20.423Z,-3
2022-10-19T11:57:21.584Z,-2.5
2022-10-19T11:59:22.486Z,-4.5
2022-10-19T12:01:23.921Z,-3.6
2022-10-19T12:03:25.567Z,-2.7
2022-10-19T12:05:27.222Z,-2.2
2022-10-19T12:07:28.345Z,-7.2
2022-10-19T12:09:29.907Z,-4.69
2022-10-19T12:11:30.908Z,-3.8
2022-10-19T12:13:32.272Z,-2.9
2022-10-19T12:15:33.601Z,-8.89
2022-10-19T12:17:35.369Z,-12.1
2022-10-19T12:19:36.269Z,-10.5
2022-10-19T12:21:37.170Z,-10.6
2022-10-19T12:23:38.569Z,-12.4
2022-10-19T12:25:40.093Z,-9.6
2022-10-19T12:27:41.570Z,-6.2
2022-10-19T12:29:42.712Z,-14.4
2022-10-19T12:31:44.027Z,-13
2022-10-19T12:33:45.790Z,-11.4
2022-10-19T12:35:47.112Z,-8.2
2022-10-19T12:37:48.636Z,-6.9
2022-10-19T12:39:49.727Z,-6.5
2022-10-19T12:41:51.426Z,-7.8
2022-10-19T12:43:52.745Z,-7.9
2022-10-19T12:45:53.907Z,-11
2022-10-19T12:51:57.778Z,-6.8
2022-10-19T12:53:58.658Z,-10.7
2022-10-19T12:55:59.791Z,-14.3
2022-10-19T12:58:01.385Z,-12.9
2022-10-19T13:00:02.465Z,-11.3
2022-10-19T13:02:03.930Z,-10
2022-10-19T13:06:06.409Z,-12.3
2022-10-19T13:08:09.246Z,-12.1
2022-10-19T13:10:09.370Z,-22.3
2022-10-19T13:12:11.218Z,-21.2
2022-10-19T13:16:13.756Z,-18.6
2022-10-19T13:18:15.328Z,-20.8
2022-10-19T13:22:18.352Z,-27.5
2022-10-19T13:24:19.584Z,-20.7
2022-10-19T13:26:21.368Z,-27.6
2022-10-19T13:28:22.494Z,-24.6
2022-10-19T13:30:23.691Z,-19.9
2022-10-19T13:32:24.949Z,-20.29
2022-10-19T13:34:26.249Z,-27.7
2022-10-19T13:36:27.648Z,-25.8
2022-10-19T13:38:28.773Z,-20.6
2022-10-19T13:40:30.229Z,-22.2
2022-10-19T13:42:32.150Z,-25.6
2022-10-19T13:44:33.798Z,-27.7
2022-10-19T13:46:35.140Z,-27.9
2022-10-19T13:48:36.977Z,-27.8
2022-10-19T13:50:38.048Z,-28.1
2022-10-19T13:52:39.606Z,-27.8
2022-10-19T13:54:40.648Z,-27.8
2022-10-19T13:56:41.626Z,-27.9
2022-10-19T13:58:43.392Z,-28
2022-10-19T14:00:44.533Z,-28.3
2022-10-19T14:04:47.145Z,-27.4
2022-10-19T14:06:48.246Z,-27.4
2022-10-19T14:08:49.757Z,-24.1
2022-10-19T14:11:00.453Z,-21.5
2022-10-19T14:12:53.232Z,-18.79
2022-10-19T14:16:58.230Z,-17.7
2022-10-19T14:18:58.341Z,-15.8
2022-10-19T14:21:00.111Z,-15.5
2022-10-19T14:23:01.861Z,-11.5
2022-10-19T14:25:02.960Z,-7.4
2022-10-19T14:27:03.995Z,-4.3
2022-10-19T14:29:05.733Z,-6.5
2022-10-19T14:31:06.727Z,-8.89
2022-10-19T14:33:07.777Z,-3.7
2022-10-19T14:35:09.142Z,20
2022-10-19T14:37:10.912Z,-0.7
2022-10-19T14:39:11.906Z,-2.09
2022-10-19T14:41:12.790Z,-6.9
2022-10-19T14:43:14.472Z,-4.9
2022-10-19T14:45:16.022Z,-5.9
2022-10-19T14:47:17.336Z,1.2
2022-10-19T14:49:18.575Z,-5.3
2022-10-19T14:53:21.446Z,-8.7
2022-10-19T14:57:23.862Z,-18.5
2022-10-19T14:59:24.982Z,-20
2022-10-19T15:03:27.692Z,-16.4
2022-10-19T15:05:28.949Z,-17.9
2022-10-19T15:07:30.253Z,-13.7
2022-10-19T15:09:37.713Z,-17.79
2022-10-19T15:13:33.778Z,-28.3
2022-10-19T15:15:35.362Z,-28
2022-10-19T15:17:36.671Z,-28
2022-10-19T15:19:37.924Z,-27.9
2022-10-19T15:23:40.462Z,-27.9
2022-10-19T15:25:41.383Z,-28.3
2022-10-19T15:27:42.750Z,-28
2022-10-19T15:29:44.354Z,-27.9
2022-10-19T15:31:46.132Z,-28
2022-10-19T15:33:47.419Z,-27.9
2022-10-19T15:35:49.317Z,-27.8
2022-10-19T15:37:51.066Z,-27.9
2022-10-19T15:41:53.636Z,-28.2
2022-10-19T15:45:56.945Z,-27.8
2022-10-19T15:47:58.449Z,-27.7
2022-10-19T15:50:00.009Z,-28
2022-10-19T15:52:01.120Z,-28
2022-10-19T15:54:02.131Z,-28.3
2022-10-19T15:58:04.583Z,-27.9
2022-10-19T16:00:05.647Z,-28.2
2022-10-19T16:02:07.247Z,-27.9
2022-10-19T16:04:08.335Z,-27.9
2022-10-19T16:06:09.511Z,-28
2022-10-19T16:08:11.743Z,-28
2022-10-19T16:10:12.785Z,-27.9
2022-10-19T16:12:14.325Z,-28.3
2022-10-19T16:16:16.790Z,-27.8
2022-10-19T16:18:18.649Z,-27.9
2022-10-19T16:20:19.937Z,-27.9
2022-10-19T16:22:21.290Z,-27.9
2022-10-19T16:24:22.322Z,-27.9
2022-10-19T16:26:24.062Z,-27.9
2022-10-19T16:28:25.061Z,-27.9
2022-10-19T16:30:26.941Z,-27.9
2022-10-19T16:32:28.802Z,-28
2022-10-19T16:34:30.232Z,-27.8
2022-10-19T16:36:31.198Z,-27.9
2022-10-19T16:40:34.164Z,-28.2
2022-10-19T16:42:35.223Z,-28.2
2022-10-19T16:44:36.461Z,-28
2022-10-19T16:46:37.474Z,-28.1
2022-10-19T16:48:38.586Z,-27.9
2022-10-19T16:50:39.843Z,-27.8
2022-10-19T16:56:44.532Z,-27.9
2022-10-19T16:58:45.917Z,-28.2
2022-10-19T17:00:46.916Z,-27.8
2022-10-19T17:02:48.531Z,-28
2022-10-19T17:04:49.498Z,-28
2022-10-19T17:06:50.802Z,-27.6
2022-10-19T17:09:23.581Z,-28.1
2022-10-19T17:10:54.444Z,-28.2
2022-10-19T17:12:55.712Z,-28.1
2022-10-19T17:16:58.491Z,-28
2022-10-19T17:19:00.234Z,-28
2022-10-19T17:21:01.928Z,-27.9
2022-10-19T17:23:02.936Z,-28.2
2022-10-19T17:25:04.636Z,-27.8
2022-10-19T17:27:05.790Z,-28.2
2022-10-19T17:29:06.901Z,-27.9
2022-10-19T17:31:08.222Z,-28.2
2022-10-19T17:33:10.098Z,-28.1
2022-10-19T17:37:12.955Z,-27.9
2022-10-19T17:39:13.913Z,-28.1
2022-10-19T17:41:15.839Z,-28.2
2022-10-19T17:43:17.528Z,-28.1
2022-10-19T17:45:19.292Z,-28.4
2022-10-19T17:47:20.641Z,-28.3
2022-10-19T17:49:22.363Z,-27.8
2022-10-19T17:53:24.963Z,-28.3
2022-10-19T17:54:08.842Z,-28.4
2022-10-19T17:56:09.944Z,-28.3
2022-10-19T18:00:12.599Z,-28.2
2022-10-19T18:04:15.187Z,-28.5
2022-10-19T18:06:16.955Z,-28
2022-10-19T18:08:18.859Z,-28.3
2022-10-19T18:10:20.373Z,-28.2
2022-10-19T18:12:21.443Z,-28.2
2022-10-19T18:14:23.004Z,-28.2
2022-10-19T18:16:24.186Z,-28.4
2022-10-19T18:18:26.043Z,-28.4
2022-10-19T18:20:27.950Z,-28.2
2022-10-19T18:22:29.587Z,-28
2022-10-19T18:24:31.093Z,-28.3
2022-10-19T18:26:32.126Z,-28.4
2022-10-19T18:28:33.271Z,-28.3
2022-10-19T18:30:34.795Z,-28.3
2022-10-19T18:32:36.357Z,-28.4
2022-10-19T18:34:38.142Z,-28.4
2022-10-19T18:36:39.115Z,-28.4
2022-10-19T18:38:40.330Z,-28.5
2022-10-19T18:40:41.986Z,-28.4
2022-10-19T18:42:43.670Z,-28.6
2022-10-19T18:46:46.981Z,-28.6
2022-10-19T18:48:48.487Z,-28.7
2022-10-19T18:50:49.914Z,-28.4
2022-10-19T18:52:51.328Z,-28.7
2022-10-19T18:58:56.100Z,-28.6
2022-10-19T19:00:57.300Z,-28.3
2022-10-19T19:02:58.641Z,-28.7
2022-10-19T19:04:59.710Z,-28.4
2022-10-19T19:07:00.984Z,-28.5
2022-10-19T19:09:02.315Z,-28.6
2022-10-19T19:13:05.661Z,-28.5
2022-10-19T19:15:07.423Z,-28.6
2022-10-19T19:17:09.146Z,-28.7
2022-10-19T19:19:10.956Z,-28.7
2022-10-19T19:21:12.093Z,-28.8
2022-10-19T19:23:13.325Z,-28.7
2022-10-19T19:25:15.281Z,-28.6
2022-10-19T19:27:16.502Z,-28.6
2022-10-19T19:29:17.822Z,-28.7
2022-10-19T19:31:19.564Z,-28.7
2022-10-19T19:35:22.227Z,-28.7
2022-10-19T19:37:24.108Z,-28.5
2022-10-19T19:39:25.752Z,-28.7
2022-10-19T19:41:27.109Z,-28.8
2022-10-19T19:43:28.613Z,-28.9
2022-10-19T19:45:29.852Z,-28.6
2022-10-19T19:47:31.482Z,-28.9
2022-10-19T19:49:32.984Z,-28.6
2022-10-19T19:51:34.731Z,-28.5
2022-10-19T19:57:39.280Z,-28.7
2022-10-19T19:59:40.717Z,-28.6
2022-10-19T20:01:42.013Z,-28.8
2022-10-19T20:03:43.418Z,-29
2022-10-19T20:07:45.849Z,-28.8
2022-10-19T20:09:47.126Z,-28.9
2022-10-19T20:11:48.520Z,-28.7
2022-10-19T20:13:49.636Z,-28.8
2022-10-19T20:15:51.309Z,-28.5
2022-10-19T20:17:52.698Z,-28.5
2022-10-19T20:19:54.611Z,-28.7
2022-10-19T20:21:55.903Z,-28.6
2022-10-19T20:23:56.833Z,-28.8
2022-10-19T20:30:01.729Z,-28.8
2022-10-19T20:32:03.315Z,-28.7
2022-10-19T20:34:04.468Z,-28.8
2022-10-19T20:36:05.773Z,-29.2
2022-10-19T20:38:07.420Z,-29.5
2022-10-19T20:40:08.869Z,-29
2022-10-19T20:42:10.035Z,-28.9
2022-10-19T20:46:13.152Z,-29.1
2022-10-19T20:48:14.756Z,-29
2022-10-19T20:50:17.087Z,-29
2022-10-19T20:56:19.481Z,-29.1
2022-10-19T20:58:20.462Z,-29.2
2022-10-19T21:00:21.631Z,-29.2
2022-10-19T21:02:23.003Z,-29.1
2022-10-19T21:04:24.722Z,-29.1
2022-10-19T21:06:26.403Z,-28.9
2022-10-19T21:08:27.495Z,-29.1
2022-10-19T21:10:28.697Z,-29
2022-10-19T21:12:29.951Z,-29.2
2022-10-19T21:14:30.987Z,-29.1
2022-10-19T21:16:32.252Z,-29.2
2022-10-19T21:18:33.778Z,-28.9
2022-10-19T21:20:34.778Z,-29
2022-10-19T21:22:37.805Z,-29
2022-10-19T21:24:38.216Z,-28.8
2022-10-19T21:26:39.954Z,-29.1
2022-10-19T21:28:41.156Z,-28.9
2022-10-19T21:30:42.334Z,-28.8
2022-10-19T21:32:43.477Z,-29
2022-10-19T21:34:45.216Z,-28.8
2022-10-19T21:36:46.301Z,-29.1
2022-10-19T21:38:47.344Z,-29
2022-10-19T21:40:49.224Z,-28.8
2022-10-19T21:42:50.418Z,-29.2
2022-10-19T21:44:54.124Z,-29.1
2022-10-19T21:46:53.137Z,-29.2
2022-10-19T21:48:54.921Z,-29.1
2022-10-19T21:50:56.873Z,-29.2
2022-10-19T21:52:58.742Z,-29.2
2022-10-19T21:55:00.233Z,-29.4
2022-10-19T21:57:01.794Z,-29.2
2022-10-19T21:59:03.658Z,-29.3
2022-10-19T22:01:05.448Z,-28.3
2022-10-19T22:03:06.632Z,-28.2
2022-10-19T22:05:07.971Z,-28.2
2022-10-19T22:09:10.307Z,-28.2
2022-10-19T22:11:12.090Z,-28.4
2022-10-19T22:13:13.111Z,-27.8
2022-10-19T22:15:14.253Z,-27.9
2022-10-19T22:17:15.704Z,-28.1
2022-10-19T22:19:16.739Z,-28
2022-10-19T22:21:18.460Z,-28.2
2022-10-19T22:23:19.851Z,-27.8
2022-10-19T22:25:21.770Z,-28.2
2022-10-19T22:27:23.220Z,-28
2022-10-19T22:31:26.734Z,-28.3
2022-10-19T22:33:27.739Z,-28.2
2022-10-19T22:35:28.913Z,-28.3
2022-10-19T22:37:30.389Z,-28.1
2022-10-19T22:39:32.096Z,-28
2022-10-19T22:41:33.203Z,-27.7
2022-10-19T22:43:35.006Z,-27.8
2022-10-19T22:45:36.134Z,-28.3
2022-10-19T22:47:37.898Z,-28.3
2022-10-19T22:53:42.546Z,-28.3
2022-10-19T22:55:43.523Z,-28.3
2022-10-19T22:57:44.747Z,-28.2
2022-10-19T22:59:46.123Z,-28.2
2022-10-19T23:01:47.281Z,-27.9
2022-10-19T23:03:48.245Z,-27.9
2022-10-19T23:07:50.951Z,-27.9
2022-10-19T23:09:52.464Z,-27.9
2022-10-19T23:11:54.154Z,-28.2
2022-10-19T23:13:55.540Z,-28
2022-10-19T23:19:59.999Z,-28.2
2022-10-19T23:22:01.181Z,-28.2
2022-10-19T23:24:02.551Z,-27.8
2022-10-19T23:26:03.588Z,-28
2022-10-19T23:28:04.844Z,-28.2
2022-10-19T23:30:06.014Z,-28.2
2022-10-19T23:34:08.678Z,-28
2022-10-19T23:36:10.184Z,-27.8
2022-10-19T23:38:12.069Z,-28
2022-10-19T23:40:13.116Z,-27.8
2022-10-19T23:42:15.042Z,-27.8
2022-10-19T23:44:16.378Z,-27.9
2022-10-19T23:46:17.869Z,-28.2
2022-10-19T23:48:18.951Z,-28.2
2022-10-19T23:50:20.562Z,-28.2
2022-10-19T23:52:22.133Z,-28.1
2022-10-19T23:54:23.647Z,-28.1
2022-10-19T23:56:25.025Z,-28.2
2022-10-19T23:58:26.916Z,-27.8
